ダブリン の空港の天気 - METARとTAF

ダブリン空港 ( EIDW / DUB ) - アイルランド ダブリン
飛行場実況気象(Metar)
観測時間02/26 03:30 GMT (02/26 03:30 UTC)
風向・風速南東 5m/s
視程10km以上
天気現象
全天の4割程度の雲 雲底高度 760m
気温2℃
湿度75%
気圧1030hPa
METAREIDW 260330Z 13010KT 9999 SCT025 02/M02 Q1030 NOSIG
過去の天気等 Google飛行場航空写真 Wunderground天気予報

過去48時間のMETAR

飛行場予報(TAF)
発表時間: 2/25 23:00 GMT (2/25 23:00 UTC)
予報対象時間: 26日0時 GMT ~ 27日0時 GMT
風向・風速東 5m/s
視程10km以上
少しの雲 雲底高度 610m
26日8時 GMT ~ 26日10時 GMT に徐々に
風向・風速東南東 8m/s
26日14時 GMT ~ 26日16時 GMT に徐々に
風向・風速東 6m/s
TAF EIDW 252300Z 2600/2624 10009KT 9999 FEW020
BECMG 2608/2610 12015KT
BECMG 2614/2616 09011KT